createdAt,value
2016-07-08T00:00:12.750Z,19.10
2016-07-08T00:01:13.212Z,19.10
2016-07-08T00:02:11.637Z,19.10
2016-07-08T00:03:11.057Z,19.10
2016-07-08T00:04:11.259Z,19.10
2016-07-08T00:05:12.069Z,19.10
2016-07-08T00:06:16.975Z,19.10
2016-07-08T00:07:12.684Z,19.00
2016-07-08T00:08:11.367Z,19.10
2016-07-08T00:09:13.011Z,19.10
2016-07-08T00:10:21.296Z,19.10
2016-07-08T00:11:11.884Z,19.10
2016-07-08T00:12:12.736Z,19.10
2016-07-08T00:13:11.185Z,19.10
2016-07-08T00:14:11.187Z,19.00
2016-07-08T00:15:11.954Z,19.00
2016-07-08T00:16:11.103Z,18.90
2016-07-08T00:17:16.913Z,19.00
2016-07-08T00:18:17.945Z,18.90
2016-07-08T00:19:12.737Z,18.90
2016-07-08T00:20:20.342Z,18.90
2016-07-08T00:21:12.909Z,18.90
2016-07-08T00:22:21.057Z,18.90
2016-07-08T00:23:13.044Z,18.90
2016-07-08T00:24:10.465Z,18.90
2016-07-08T00:25:11.560Z,18.90
2016-07-08T00:26:11.780Z,18.90
2016-07-08T00:27:10.677Z,18.90
2016-07-08T00:28:16.807Z,18.90
2016-07-08T00:29:11.664Z,18.90
2016-07-08T00:30:12.047Z,18.90
2016-07-08T00:31:11.882Z,18.90
2016-07-08T00:32:12.273Z,18.90
2016-07-08T00:33:11.746Z,18.90
2016-07-08T00:34:24.502Z,18.90
2016-07-08T00:35:11.393Z,18.90
2016-07-08T00:36:11.297Z,18.90
2016-07-08T00:37:11.632Z,18.90
2016-07-08T00:38:17.230Z,18.90
2016-07-08T00:39:16.267Z,18.80
2016-07-08T00:40:25.447Z,18.80
2016-07-08T00:41:12.031Z,18.80
2016-07-08T00:42:12.397Z,18.80
2016-07-08T00:43:12.308Z,18.80
2016-07-08T00:44:21.244Z,18.80
2016-07-08T00:45:12.279Z,18.80
2016-07-08T00:46:12.361Z,18.70
2016-07-08T00:47:10.936Z,18.70
2016-07-08T00:48:11.734Z,18.70
2016-07-08T00:49:11.493Z,18.70
2016-07-08T00:50:15.812Z,18.70
2016-07-08T00:51:27.008Z,18.70
2016-07-08T00:52:11.846Z,18.70
2016-07-08T00:53:12.760Z,18.70
2016-07-08T00:54:12.651Z,18.80
2016-07-08T00:55:11.704Z,18.70
2016-07-08T00:56:11.680Z,18.80
2016-07-08T00:57:11.610Z,18.70
2016-07-08T00:58:11.313Z,18.70
2016-07-08T00:59:13.150Z,18.70
2016-07-08T01:00:16.164Z,18.70
2016-07-08T01:01:11.615Z,18.70
2016-07-08T01:02:27.048Z,18.60
2016-07-08T01:03:11.977Z,18.60
2016-07-08T01:04:11.418Z,18.70
2016-07-08T01:05:12.068Z,18.60
2016-07-08T01:06:12.504Z,18.60
2016-07-08T01:07:12.246Z,18.60
2016-07-08T01:08:12.546Z,18.60
2016-07-08T01:09:12.581Z,18.60
2016-07-08T01:10:12.123Z,18.50
2016-07-08T01:11:11.921Z,18.50
2016-07-08T01:12:11.846Z,18.50
2016-07-08T01:13:11.486Z,18.40
2016-07-08T01:14:17.935Z,18.50
2016-07-08T01:15:23.650Z,18.40
2016-07-08T01:16:11.352Z,18.40
2016-07-08T01:17:19.396Z,18.50
2016-07-08T01:18:12.320Z,18.50
2016-07-08T01:19:11.818Z,18.40
2016-07-08T01:20:13.154Z,18.40
2016-07-08T01:21:11.034Z,18.40
2016-07-08T01:22:11.061Z,18.50
2016-07-08T01:23:10.921Z,18.40
2016-07-08T01:24:12.170Z,18.50
2016-07-08T01:25:16.268Z,18.40
2016-07-08T01:26:23.100Z,18.40
2016-07-08T01:27:12.186Z,18.40
2016-07-08T01:28:13.106Z,18.40
2016-07-08T01:29:12.050Z,18.40
2016-07-08T01:30:12.941Z,18.50
2016-07-08T01:31:12.007Z,18.40
2016-07-08T01:32:11.148Z,18.40
2016-07-08T01:33:11.627Z,18.40
2016-07-08T01:34:11.559Z,18.40
2016-07-08T01:35:10.898Z,18.40
2016-07-08T01:36:12.231Z,18.40
2016-07-08T01:37:11.641Z,18.30
2016-07-08T01:38:11.507Z,18.30
2016-07-08T01:39:11.361Z,18.40
2016-07-08T01:40:12.217Z,18.40
2016-07-08T01:41:12.081Z,18.30
2016-07-08T01:42:21.948Z,18.30
2016-07-08T01:43:10.937Z,18.30
2016-07-08T01:44:11.856Z,18.30
2016-07-08T01:45:11.683Z,18.30
2016-07-08T01:46:11.721Z,18.30
2016-07-08T01:47:11.489Z,18.30
2016-07-08T01:48:16.478Z,18.30
2016-07-08T01:49:11.470Z,18.30
2016-07-08T01:50:11.962Z,18.20
2016-07-08T01:51:12.840Z,18.20
2016-07-08T01:52:11.349Z,18.20
2016-07-08T01:53:21.313Z,18.10
2016-07-08T01:54:13.022Z,18.20
2016-07-08T01:55:11.348Z,18.20
2016-07-08T01:56:12.128Z,18.20
2016-07-08T01:57:11.538Z,18.20
2016-07-08T01:58:11.952Z,18.20
2016-07-08T01:59:09.097Z,18.20
2016-07-08T02:00:17.221Z,18.20
2016-07-08T02:01:12.097Z,18.20
2016-07-08T02:02:12.793Z,18.20
2016-07-08T02:03:11.644Z,18.20
2016-07-08T02:04:20.635Z,18.30
2016-07-08T02:05:13.047Z,18.30
2016-07-08T02:06:11.459Z,18.30
2016-07-08T02:07:11.363Z,18.30
2016-07-08T02:08:11.662Z,18.20
2016-07-08T02:09:11.178Z,18.20
2016-07-08T02:10:11.999Z,18.20
2016-07-08T02:11:12.605Z,18.20
2016-07-08T02:12:12.035Z,18.20
2016-07-08T02:13:24.118Z,18.10
2016-07-08T02:14:12.959Z,18.10
2016-07-08T02:15:12.185Z,18.00
2016-07-08T02:16:13.184Z,18.00
2016-07-08T02:17:12.767Z,18.00
2016-07-08T02:18:12.233Z,18.00
2016-07-08T02:19:12.095Z,18.00
2016-07-08T02:20:11.635Z,18.00
2016-07-08T02:21:11.996Z,18.00
2016-07-08T02:22:16.766Z,18.00
2016-07-08T02:23:17.243Z,18.00
2016-07-08T02:24:12.811Z,18.00
2016-07-08T02:25:12.748Z,18.00
2016-07-08T02:26:12.615Z,18.00
2016-07-08T02:27:11.605Z,17.90
2016-07-08T02:28:12.709Z,17.90
2016-07-08T02:29:11.776Z,17.90
2016-07-08T02:30:11.601Z,17.90
2016-07-08T02:31:12.969Z,17.90
2016-07-08T02:32:11.748Z,17.90
2016-07-08T02:33:15.891Z,17.80
2016-07-08T02:34:16.997Z,17.80
2016-07-08T02:35:11.838Z,17.80
2016-07-08T02:36:12.493Z,17.80
2016-07-08T02:37:12.183Z,17.80
2016-07-08T02:38:12.047Z,17.80
2016-07-08T02:39:12.044Z,17.80
2016-07-08T02:40:11.043Z,17.80
2016-07-08T02:41:10.641Z,17.80
2016-07-08T02:42:11.579Z,17.70
2016-07-08T02:43:14.855Z,17.70
2016-07-08T02:44:11.649Z,17.70
2016-07-08T02:45:11.443Z,17.70
2016-07-08T02:46:17.619Z,17.70
2016-07-08T02:47:11.473Z,17.70
2016-07-08T02:48:12.241Z,17.70
2016-07-08T02:49:11.633Z,17.60
2016-07-08T02:50:21.361Z,17.70
2016-07-08T02:51:11.930Z,17.60
2016-07-08T02:52:11.483Z,17.60
2016-07-08T02:53:10.372Z,17.70
2016-07-08T02:54:12.171Z,17.60
2016-07-08T02:55:10.769Z,17.60
2016-07-08T02:56:16.128Z,17.60
2016-07-08T02:57:11.665Z,17.70
2016-07-08T02:58:11.691Z,17.60
2016-07-08T02:59:11.691Z,17.60
2016-07-08T03:00:12.610Z,17.60
2016-07-08T03:01:11.451Z,17.60
2016-07-08T03:02:13.303Z,17.60
2016-07-08T03:03:10.728Z,17.60
2016-07-08T03:04:11.562Z,17.60
2016-07-08T03:05:10.990Z,17.60
2016-07-08T03:06:10.814Z,17.60
2016-07-08T03:07:16.023Z,17.60
2016-07-08T03:08:16.688Z,17.60
2016-07-08T03:09:17.839Z,17.60
2016-07-08T03:10:11.680Z,17.60
2016-07-08T03:11:17.742Z,17.60
2016-07-08T03:12:12.660Z,17.60
2016-07-08T03:13:12.579Z,17.60
2016-07-08T03:14:12.370Z,17.50
2016-07-08T03:15:11.755Z,17.60
2016-07-08T03:16:10.842Z,17.60
2016-07-08T03:17:11.764Z,17.50
2016-07-08T03:18:11.553Z,17.60
2016-07-08T03:19:11.236Z,17.60
2016-07-08T03:20:12.280Z,17.60
2016-07-08T03:21:18.419Z,17.60
2016-07-08T03:22:12.264Z,17.60
2016-07-08T03:23:13.123Z,17.60
2016-07-08T03:24:12.782Z,17.60
2016-07-08T03:25:12.744Z,17.60
2016-07-08T03:26:11.686Z,17.60
2016-07-08T03:27:20.691Z,17.60
2016-07-08T03:28:10.845Z,17.60
2016-07-08T03:29:10.816Z,17.60
2016-07-08T03:30:16.289Z,17.60
2016-07-08T03:31:17.098Z,17.50
2016-07-08T03:32:11.986Z,17.50
2016-07-08T03:33:11.856Z,17.50
2016-07-08T03:34:19.852Z,17.50
2016-07-08T03:35:12.313Z,17.50
2016-07-08T03:36:11.845Z,17.40
2016-07-08T03:37:13.301Z,17.50
2016-07-08T03:38:13.692Z,17.50
2016-07-08T03:39:10.855Z,17.50
2016-07-08T03:40:11.763Z,17.50
2016-07-08T03:41:12.021Z,17.40
2016-07-08T03:42:16.857Z,17.40
2016-07-08T03:43:20.533Z,17.40
2016-07-08T03:44:12.995Z,17.40
2016-07-08T03:45:12.961Z,17.40
2016-07-08T03:46:12.824Z,17.40
2016-07-08T03:47:11.655Z,17.40
2016-07-08T03:48:22.300Z,17.40
2016-07-08T03:49:11.353Z,17.40
2016-07-08T03:50:11.778Z,17.40
2016-07-08T03:51:13.205Z,17.40
2016-07-08T03:52:11.997Z,17.40
2016-07-08T03:53:11.284Z,17.50
2016-07-08T03:54:17.687Z,17.50
2016-07-08T03:55:13.287Z,17.50
2016-07-08T03:56:13.297Z,17.50
2016-07-08T03:57:12.830Z,17.50
2016-07-08T03:58:21.335Z,17.50
2016-07-08T03:59:12.397Z,17.50
2016-07-08T04:00:11.623Z,17.50
2016-07-08T04:01:10.734Z,17.50
2016-07-08T04:02:10.918Z,17.50
2016-07-08T04:03:15.536Z,17.60
2016-07-08T04:04:11.877Z,17.60
2016-07-08T04:05:17.379Z,17.60
2016-07-08T04:06:12.009Z,17.60
2016-07-08T04:07:11.667Z,17.50
2016-07-08T04:08:13.081Z,17.50
2016-07-08T04:09:11.963Z,17.50
2016-07-08T04:10:13.552Z,17.50
2016-07-08T04:11:10.941Z,17.60
2016-07-08T04:12:11.514Z,17.50
2016-07-08T04:13:11.332Z,17.60
2016-07-08T04:14:11.225Z,17.60
2016-07-08T04:15:17.965Z,17.60
2016-07-08T04:16:17.203Z,17.60
2016-07-08T04:17:17.968Z,17.60
2016-07-08T04:18:11.875Z,17.60
2016-07-08T04:19:11.318Z,17.60
2016-07-08T04:20:11.773Z,17.60
2016-07-08T04:21:13.260Z,17.60
2016-07-08T04:22:12.277Z,17.60
2016-07-08T04:23:14.296Z,17.60
2016-07-08T04:24:11.639Z,17.60
2016-07-08T04:25:25.401Z,17.60
2016-07-08T04:26:16.257Z,17.60
2016-07-08T04:27:11.857Z,17.60
2016-07-08T04:28:11.883Z,17.70
2016-07-08T04:29:11.489Z,17.70
2016-07-08T04:30:11.324Z,17.70
2016-07-08T04:31:13.238Z,17.70
2016-07-08T04:32:21.347Z,17.70
2016-07-08T04:33:11.690Z,17.70
2016-07-08T04:34:13.550Z,17.70
2016-07-08T04:35:10.959Z,17.70
2016-07-08T04:36:12.805Z,17.80
2016-07-08T04:37:16.219Z,17.80
2016-07-08T04:38:17.140Z,17.80
2016-07-08T04:39:11.479Z,17.70
2016-07-08T04:40:11.528Z,17.80
2016-07-08T04:41:12.595Z,17.80
2016-07-08T04:42:12.706Z,17.80
2016-07-08T04:43:12.260Z,17.70
2016-07-08T04:44:12.801Z,17.70
2016-07-08T04:45:12.060Z,17.70
2016-07-08T04:46:11.891Z,17.80
2016-07-08T04:47:10.914Z,17.80
2016-07-08T04:48:16.080Z,17.70
2016-07-08T04:49:11.460Z,17.70
2016-07-08T04:50:28.468Z,17.70
2016-07-08T04:51:11.842Z,17.80
2016-07-08T04:52:11.795Z,17.70
2016-07-08T04:53:11.682Z,17.70
2016-07-08T04:54:11.692Z,17.70
2016-07-08T04:55:10.751Z,17.70
2016-07-08T04:56:12.287Z,17.70
2016-07-08T04:57:11.843Z,17.70
2016-07-08T04:58:11.355Z,17.70
2016-07-08T04:59:12.174Z,17.70
2016-07-08T05:00:16.788Z,17.70
2016-07-08T05:01:13.084Z,17.70
2016-07-08T05:02:12.619Z,17.80
2016-07-08T05:03:13.006Z,17.70
2016-07-08T05:04:12.440Z,17.70
2016-07-08T05:05:12.280Z,17.70
2016-07-08T05:06:11.610Z,17.70
2016-07-08T05:07:12.144Z,17.70
2016-07-08T05:08:11.889Z,17.80
2016-07-08T05:09:11.603Z,17.80
2016-07-08T05:10:10.497Z,17.80
2016-07-08T05:11:11.176Z,17.90
2016-07-08T05:12:17.424Z,17.90
2016-07-08T05:13:12.308Z,17.90
2016-07-08T05:14:13.221Z,17.90
2016-07-08T05:15:12.645Z,17.90
2016-07-08T05:16:11.643Z,17.90
2016-07-08T05:17:12.287Z,17.90
2016-07-08T05:18:11.926Z,17.90
2016-07-08T05:19:11.384Z,17.90
2016-07-08T05:20:11.482Z,17.90
2016-07-08T05:21:13.115Z,17.90
2016-07-08T05:22:16.051Z,17.90
2016-07-08T05:23:11.498Z,17.90
2016-07-08T05:24:17.769Z,17.90
2016-07-08T05:25:13.124Z,17.90
2016-07-08T05:26:13.211Z,17.80
2016-07-08T05:27:11.517Z,17.80
2016-07-08T05:28:11.517Z,17.80
2016-07-08T05:29:11.462Z,17.80
2016-07-08T05:30:11.709Z,17.90
2016-07-08T05:31:10.734Z,17.90
2016-07-08T05:32:11.617Z,17.90
2016-07-08T05:33:15.625Z,17.90
2016-07-08T05:34:16.437Z,18.00
2016-07-08T05:35:14.311Z,18.00
2016-07-08T05:36:12.551Z,18.00
2016-07-08T05:37:12.278Z,18.00
2016-07-08T05:38:12.183Z,18.00
2016-07-08T05:39:12.207Z,18.00
2016-07-08T05:40:12.254Z,18.10
2016-07-08T05:41:12.235Z,18.10
2016-07-08T05:42:17.484Z,18.10
2016-07-08T05:43:12.005Z,18.10
2016-07-08T05:44:11.473Z,18.10
2016-07-08T05:45:16.296Z,18.00
2016-07-08T05:46:11.892Z,18.00
2016-07-08T05:47:10.273Z,18.10
2016-07-08T05:48:12.309Z,18.10
2016-07-08T05:49:13.206Z,18.10
2016-07-08T05:50:12.161Z,18.10
2016-07-08T05:51:17.995Z,18.10
2016-07-08T05:52:10.975Z,18.10
2016-07-08T05:53:10.374Z,18.10
2016-07-08T05:54:12.007Z,18.10
2016-07-08T05:55:10.664Z,18.20
2016-07-08T05:56:15.856Z,18.20
2016-07-08T05:57:11.367Z,18.20
2016-07-08T05:58:12.191Z,18.20
2016-07-08T05:59:24.151Z,18.20
2016-07-08T06:00:11.980Z,18.20
2016-07-08T06:01:11.864Z,18.20
2016-07-08T06:02:12.644Z,18.30
2016-07-08T06:03:10.619Z,18.30
2016-07-08T06:04:11.754Z,18.30
2016-07-08T06:05:12.171Z,18.30
2016-07-08T06:06:21.874Z,18.30
2016-07-08T06:07:11.722Z,18.30
2016-07-08T06:08:12.163Z,18.30
2016-07-08T06:09:11.707Z,18.40
2016-07-08T06:10:12.122Z,18.40
2016-07-08T06:11:12.478Z,18.40
2016-07-08T06:12:12.518Z,18.40
2016-07-08T06:13:12.955Z,18.40
2016-07-08T06:14:12.997Z,18.50
2016-07-08T06:15:13.229Z,18.50
2016-07-08T06:16:11.147Z,18.50
2016-07-08T06:17:12.056Z,18.50
2016-07-08T06:18:11.454Z,18.60
2016-07-08T06:19:11.852Z,18.60
2016-07-08T06:20:16.690Z,18.60
2016-07-08T06:21:11.377Z,18.60
2016-07-08T06:22:24.276Z,18.70
2016-07-08T06:23:13.138Z,18.70
2016-07-08T06:24:12.182Z,18.70
2016-07-08T06:25:12.105Z,18.70
2016-07-08T06:26:12.939Z,18.80
2016-07-08T06:27:11.217Z,18.80
2016-07-08T06:28:11.703Z,18.80
2016-07-08T06:29:11.517Z,18.80
2016-07-08T06:30:11.549Z,18.80
2016-07-08T06:31:16.754Z,18.90
2016-07-08T06:32:17.653Z,18.90
2016-07-08T06:33:11.510Z,18.90
2016-07-08T06:34:11.383Z,18.90
2016-07-08T06:35:11.455Z,18.90
2016-07-08T06:36:12.311Z,18.90
2016-07-08T06:37:12.977Z,18.90
2016-07-08T06:38:10.764Z,19.00
2016-07-08T06:39:11.598Z,19.00
2016-07-08T06:40:12.091Z,19.00
2016-07-08T06:41:11.306Z,19.00
2016-07-08T06:42:12.120Z,19.00
2016-07-08T06:43:16.773Z,19.00
2016-07-08T06:44:12.156Z,19.10
2016-07-08T06:45:18.706Z,19.00
2016-07-08T06:46:09.777Z,19.10
2016-07-08T06:47:12.285Z,19.10
2016-07-08T06:48:12.144Z,19.10
2016-07-08T06:49:13.012Z,19.10
2016-07-08T06:50:11.430Z,19.10
2016-07-08T06:51:11.413Z,19.10
2016-07-08T06:52:11.900Z,19.10
2016-07-08T06:53:11.693Z,19.20
2016-07-08T06:54:12.155Z,19.20
2016-07-08T06:55:12.710Z,19.20
2016-07-08T06:56:12.621Z,19.20
2016-07-08T06:57:11.670Z,19.20
2016-07-08T06:58:11.466Z,19.20
2016-07-08T06:59:11.383Z,19.30
2016-07-08T07:00:12.233Z,19.40
2016-07-08T07:01:21.244Z,19.40
2016-07-08T07:02:11.336Z,19.40
2016-07-08T07:03:11.858Z,19.50
2016-07-08T07:04:11.704Z,19.50
2016-07-08T07:05:15.826Z,19.50
2016-07-08T07:06:16.827Z,19.50
2016-07-08T07:07:11.750Z,19.50
2016-07-08T07:08:11.369Z,19.50
2016-07-08T07:09:11.365Z,19.50
2016-07-08T07:10:20.873Z,19.50
2016-07-08T07:11:11.909Z,19.60
2016-07-08T07:12:12.061Z,19.60
2016-07-08T07:13:12.095Z,19.60
2016-07-08T07:14:11.645Z,19.60
2016-07-08T07:15:11.438Z,19.60
2016-07-08T07:16:11.436Z,19.60
2016-07-08T07:17:16.829Z,19.60
2016-07-08T07:18:11.701Z,19.60
2016-07-08T07:19:13.129Z,19.60
2016-07-08T07:20:20.352Z,19.70
2016-07-08T07:21:12.196Z,19.70
2016-07-08T07:22:20.907Z,19.70
2016-07-08T07:23:11.808Z,19.70
2016-07-08T07:24:11.480Z,19.70
2016-07-08T07:25:11.272Z,19.70
2016-07-08T07:26:12.080Z,19.70
2016-07-08T07:27:11.924Z,19.70
2016-07-08T07:28:11.493Z,19.70
2016-07-08T07:29:23.562Z,19.70
2016-07-08T07:30:11.408Z,19.80
2016-07-08T07:31:12.283Z,19.80
2016-07-08T07:32:20.291Z,19.80
2016-07-08T07:33:12.828Z,19.80
2016-07-08T07:34:11.900Z,19.80
2016-07-08T07:35:13.804Z,19.80
2016-07-08T07:36:13.284Z,19.80
2016-07-08T07:37:12.120Z,19.80
2016-07-08T07:38:11.923Z,19.80
2016-07-08T07:39:16.340Z,19.80
2016-07-08T07:40:14.233Z,19.80
2016-07-08T07:41:13.098Z,19.80
2016-07-08T07:42:20.070Z,19.80
2016-07-08T07:43:11.880Z,19.90
2016-07-08T07:44:11.888Z,19.90
2016-07-08T07:45:11.873Z,19.90
2016-07-08T07:46:11.522Z,19.90
2016-07-08T07:47:11.325Z,19.90
2016-07-08T07:48:11.402Z,19.90
2016-07-08T07:49:11.270Z,19.90
2016-07-08T07:50:11.790Z,19.90
2016-07-08T07:51:11.683Z,19.90
2016-07-08T07:52:23.730Z,19.90
2016-07-08T07:53:12.678Z,19.90
2016-07-08T07:54:12.057Z,19.90
2016-07-08T07:55:21.004Z,19.90
2016-07-08T07:56:12.004Z,19.90
2016-07-08T07:57:11.484Z,19.90
2016-07-08T07:58:11.355Z,19.90
2016-07-08T07:59:12.178Z,19.90
2016-07-08T08:00:12.029Z,19.90
2016-07-08T08:01:11.552Z,20.00
2016-07-08T08:02:11.452Z,20.00
2016-07-08T08:03:12.244Z,20.00
2016-07-08T08:04:13.087Z,20.00
2016-07-08T08:05:12.893Z,20.00
2016-07-08T08:06:20.902Z,20.00
2016-07-08T08:07:11.897Z,20.00
2016-07-08T08:08:11.844Z,20.00
2016-07-08T08:09:10.024Z,20.00
2016-07-08T08:10:11.779Z,20.00
2016-07-08T08:11:11.508Z,20.00
2016-07-08T08:12:11.808Z,20.00
2016-07-08T08:13:16.724Z,20.00
2016-07-08T08:14:24.749Z,20.00
2016-07-08T08:15:12.598Z,20.00
2016-07-08T08:16:10.604Z,20.00
2016-07-08T08:17:21.252Z,20.00
2016-07-08T08:18:13.160Z,20.00
2016-07-08T08:19:12.151Z,20.00
2016-07-08T08:20:11.430Z,20.00
2016-07-08T08:21:11.833Z,20.10
2016-07-08T08:22:11.691Z,20.10
2016-07-08T08:23:09.848Z,20.10
2016-07-08T08:24:12.019Z,20.10
2016-07-08T08:25:17.143Z,20.10
2016-07-08T08:26:18.160Z,20.10
2016-07-08T08:27:11.995Z,20.10
2016-07-08T08:28:11.891Z,20.10
2016-07-08T08:29:12.350Z,20.10
2016-07-08T08:30:13.376Z,20.10
2016-07-08T08:31:10.923Z,20.10
2016-07-08T08:32:10.885Z,20.10
2016-07-08T08:33:11.817Z,20.10
2016-07-08T08:34:19.112Z,20.10
2016-07-08T08:35:15.990Z,20.10
2016-07-08T08:36:11.579Z,20.10
2016-07-08T08:37:11.576Z,20.10
2016-07-08T08:38:13.279Z,20.10
2016-07-08T08:39:13.145Z,20.10
2016-07-08T08:40:20.762Z,20.10
2016-07-08T08:41:12.627Z,20.10
2016-07-08T08:42:13.735Z,20.10
2016-07-08T08:43:11.636Z,20.10
2016-07-08T08:44:11.429Z,20.20
2016-07-08T08:45:11.897Z,20.20
2016-07-08T08:46:15.523Z,20.20
2016-07-08T08:47:26.607Z,20.20
2016-07-08T08:48:17.731Z,20.20
2016-07-08T08:49:10.651Z,20.20
2016-07-08T08:50:11.919Z,20.20
2016-07-08T08:51:12.785Z,20.20
2016-07-08T08:52:12.779Z,20.20
2016-07-08T08:53:12.767Z,20.20
2016-07-08T08:54:13.515Z,20.20
2016-07-08T08:55:11.304Z,20.20
2016-07-08T08:56:09.922Z,20.20
2016-07-08T08:57:11.430Z,20.20
2016-07-08T08:58:22.364Z,20.20
2016-07-08T08:59:17.167Z,20.20
2016-07-08T09:00:24.138Z,20.20
2016-07-08T09:01:12.145Z,20.20
2016-07-08T09:02:12.013Z,20.20
2016-07-08T09:03:11.449Z,20.20
2016-07-08T09:04:12.351Z,20.20
2016-07-08T09:05:13.220Z,20.20
2016-07-08T09:06:12.621Z,20.20
2016-07-08T09:07:11.279Z,20.20
2016-07-08T09:08:11.393Z,20.20
2016-07-08T09:09:12.195Z,20.20
2016-07-08T09:10:16.537Z,20.30
2016-07-08T09:11:11.943Z,20.30
2016-07-08T09:12:11.900Z,20.20
2016-07-08T09:13:12.557Z,20.30
2016-07-08T09:14:12.521Z,20.30
2016-07-08T09:15:12.554Z,20.30
2016-07-08T09:16:10.976Z,20.30
2016-07-08T09:17:14.296Z,20.30
2016-07-08T09:18:11.710Z,20.30
2016-07-08T09:19:11.535Z,20.30
2016-07-08T09:20:10.652Z,20.30
2016-07-08T09:21:16.474Z,20.30
2016-07-08T09:22:11.341Z,20.30
2016-07-08T09:23:12.172Z,20.30
2016-07-08T09:24:13.122Z,20.30
2016-07-08T09:25:20.709Z,20.30
2016-07-08T09:26:20.817Z,20.30
2016-07-08T09:27:12.823Z,20.30
2016-07-08T09:28:11.241Z,20.30
2016-07-08T09:29:11.947Z,20.30
2016-07-08T09:30:11.007Z,20.30
2016-07-08T09:31:10.991Z,20.30
2016-07-08T09:32:27.005Z,20.30
2016-07-08T09:33:12.019Z,20.30
2016-07-08T09:34:24.094Z,20.30
2016-07-08T09:35:11.939Z,20.30
2016-07-08T09:36:12.784Z,20.30
2016-07-08T09:37:12.659Z,20.40
2016-07-08T09:38:11.645Z,20.30
2016-07-08T09:39:11.412Z,20.30
2016-07-08T09:40:11.648Z,20.40
2016-07-08T09:41:11.890Z,20.40
2016-07-08T09:42:11.727Z,20.40
2016-07-08T09:43:11.809Z,20.40
2016-07-08T09:44:11.851Z,20.40
2016-07-08T09:45:17.990Z,20.40
2016-07-08T09:46:11.383Z,20.40
2016-07-08T09:47:11.954Z,20.40
2016-07-08T09:48:11.471Z,20.40
2016-07-08T09:49:11.583Z,20.40
2016-07-08T09:50:11.536Z,20.40
2016-07-08T09:51:11.726Z,20.40
2016-07-08T09:52:11.646Z,20.40
2016-07-08T09:53:11.581Z,20.40
2016-07-08T09:54:07.480Z,20.40
2016-07-08T09:55:16.999Z,20.40
2016-07-08T09:56:12.393Z,20.40
2016-07-08T09:57:12.880Z,20.40
2016-07-08T09:58:12.071Z,20.40
2016-07-08T09:59:11.486Z,20.40
2016-07-08T10:00:12.322Z,20.40
2016-07-08T10:01:11.044Z,20.40
2016-07-08T10:02:10.810Z,20.40
2016-07-08T10:03:12.143Z,20.40
2016-07-08T10:04:11.557Z,20.40
2016-07-08T10:05:10.431Z,20.40
2016-07-08T10:06:16.441Z,20.40
2016-07-08T10:07:17.283Z,20.40
2016-07-08T10:08:11.223Z,20.50
2016-07-08T10:09:12.904Z,20.40
2016-07-08T10:10:20.795Z,20.40
2016-07-08T10:11:12.144Z,20.50
2016-07-08T10:12:13.230Z,20.40
2016-07-08T10:13:11.247Z,20.50
2016-07-08T10:14:11.874Z,20.50
2016-07-08T10:15:12.139Z,20.50
2016-07-08T10:16:11.629Z,20.50
2016-07-08T10:17:16.998Z,20.50
2016-07-08T10:18:11.411Z,20.50
2016-07-08T10:19:12.314Z,20.50
2016-07-08T10:20:12.645Z,20.50
2016-07-08T10:21:20.026Z,20.50
2016-07-08T10:22:11.467Z,20.50
2016-07-08T10:23:13.057Z,20.50
2016-07-08T10:24:11.017Z,20.50
2016-07-08T10:25:11.845Z,20.50
2016-07-08T10:26:12.040Z,20.50
2016-07-08T10:27:11.612Z,20.50
2016-07-08T10:28:11.187Z,20.50
2016-07-08T10:29:16.667Z,20.50
2016-07-08T10:30:23.642Z,20.50
2016-07-08T10:31:12.422Z,20.50
2016-07-08T10:32:20.431Z,20.50
2016-07-08T10:33:13.288Z,20.50
2016-07-08T10:34:12.157Z,20.50
2016-07-08T10:35:12.876Z,20.50
2016-07-08T10:36:13.667Z,20.50
2016-07-08T10:37:11.556Z,20.50
2016-07-08T10:38:11.129Z,20.50
2016-07-08T10:39:11.959Z,20.50
2016-07-08T10:40:21.927Z,20.50
2016-07-08T10:41:16.870Z,20.50
2016-07-08T10:42:11.855Z,20.50
2016-07-08T10:43:11.381Z,20.50
2016-07-08T10:44:11.765Z,20.50
2016-07-08T10:45:12.570Z,20.50
2016-07-08T10:46:12.132Z,20.50
2016-07-08T10:47:23.096Z,20.50
2016-07-08T10:48:13.604Z,20.50
2016-07-08T10:49:19.098Z,20.50
2016-07-08T10:50:11.887Z,20.50
2016-07-08T10:51:11.331Z,20.60
2016-07-08T10:52:16.522Z,20.60
2016-07-08T10:53:23.518Z,20.50
2016-07-08T10:54:11.383Z,20.50
2016-07-08T10:55:13.263Z,20.50
2016-07-08T10:56:09.363Z,20.60
2016-07-08T10:57:12.176Z,20.60
2016-07-08T10:58:12.158Z,20.60
2016-07-08T10:59:11.469Z,20.60
2016-07-08T11:00:11.760Z,20.60
2016-07-08T11:01:11.548Z,20.60
2016-07-08T11:02:11.326Z,20.60
2016-07-08T11:03:11.753Z,20.60
2016-07-08T11:04:16.968Z,20.60
2016-07-08T11:05:11.876Z,20.60
2016-07-08T11:06:13.101Z,20.60
2016-07-08T11:07:12.429Z,20.60
2016-07-08T11:08:12.752Z,20.60
2016-07-08T11:09:12.733Z,20.60
2016-07-08T11:10:11.671Z,20.60
2016-07-08T11:11:10.958Z,20.60
2016-07-08T11:12:11.398Z,20.60
2016-07-08T11:13:16.893Z,20.60
2016-07-08T11:14:10.851Z,20.60
2016-07-08T11:15:17.128Z,20.60
2016-07-08T11:16:25.678Z,20.60
2016-07-08T11:17:11.631Z,20.60
2016-07-08T11:18:20.362Z,20.60
2016-07-08T11:19:12.202Z,20.60
2016-07-08T11:20:12.218Z,20.60
2016-07-08T11:21:12.221Z,20.60
2016-07-08T11:22:13.212Z,20.60
2016-07-08T11:23:16.925Z,20.60
2016-07-08T11:24:10.425Z,20.60
2016-07-08T11:25:12.221Z,20.60
2016-07-08T11:26:16.502Z,20.60
2016-07-08T11:27:09.069Z,20.60
2016-07-08T11:28:11.374Z,20.60
2016-07-08T11:29:12.293Z,20.60
2016-07-08T11:30:12.350Z,20.60
2016-07-08T11:31:12.168Z,20.60
2016-07-08T11:32:12.027Z,20.60
2016-07-08T11:33:10.991Z,20.60
2016-07-08T11:34:11.417Z,20.60
2016-07-08T11:35:11.988Z,20.60
2016-07-08T11:36:11.764Z,20.60
2016-07-08T11:37:16.160Z,20.60
2016-07-08T11:38:16.999Z,20.60
2016-07-08T11:39:11.883Z,20.60
2016-07-08T11:40:11.388Z,20.60
2016-07-08T11:41:13.244Z,20.60
2016-07-08T11:42:12.743Z,20.70
2016-07-08T11:43:11.696Z,20.60
2016-07-08T11:44:12.431Z,20.60
2016-07-08T11:45:13.454Z,20.60
2016-07-08T11:46:12.237Z,20.60
2016-07-08T11:47:12.003Z,20.70
2016-07-08T11:48:10.917Z,20.70
2016-07-08T11:49:12.357Z,20.70
2016-07-08T11:50:12.218Z,20.70
2016-07-08T11:51:11.857Z,20.70
2016-07-08T11:52:11.762Z,20.70
2016-07-08T11:53:20.684Z,20.70
2016-07-08T11:54:13.105Z,20.70
2016-07-08T11:55:11.270Z,20.70
2016-07-08T11:56:12.290Z,20.70
2016-07-08T11:57:12.279Z,20.70
2016-07-08T11:58:11.176Z,20.70
2016-07-08T11:59:19.488Z,20.70
2016-07-08T12:00:16.349Z,20.70
2016-07-08T12:01:17.506Z,20.70
2016-07-08T12:02:11.641Z,20.70
2016-07-08T12:03:12.236Z,20.70
2016-07-08T12:04:13.104Z,20.70
2016-07-08T12:05:21.069Z,20.70
2016-07-08T12:06:11.938Z,20.70
2016-07-08T12:07:12.409Z,20.70
2016-07-08T12:08:11.461Z,20.70
2016-07-08T12:09:10.935Z,20.70
2016-07-08T12:10:11.050Z,20.70
2016-07-08T12:11:16.191Z,20.70
2016-07-08T12:12:16.887Z,20.70
2016-07-08T12:13:20.859Z,20.70
2016-07-08T12:14:12.808Z,20.70
2016-07-08T12:15:12.231Z,20.70
2016-07-08T12:16:13.117Z,20.70
2016-07-08T12:17:17.297Z,20.70
2016-07-08T12:18:11.763Z,20.70
2016-07-08T12:19:11.953Z,20.70
2016-07-08T12:20:11.304Z,20.70
2016-07-08T12:21:11.719Z,20.70
2016-07-08T12:22:11.525Z,20.70
2016-07-08T12:23:16.692Z,20.70
2016-07-08T12:24:17.477Z,20.70
2016-07-08T12:25:11.342Z,20.70
2016-07-08T12:26:11.839Z,20.70
2016-07-08T12:27:12.235Z,20.70
2016-07-08T12:28:13.097Z,20.70
2016-07-08T12:29:13.167Z,20.70
2016-07-08T12:30:11.647Z,20.70
2016-07-08T12:31:11.654Z,20.70
2016-07-08T12:32:11.148Z,20.70
2016-07-08T12:33:11.569Z,20.70
2016-07-08T12:34:26.196Z,20.70
2016-07-08T12:35:12.834Z,20.80
2016-07-08T12:36:24.856Z,20.80
2016-07-08T12:37:09.378Z,20.80
2016-07-08T12:38:12.246Z,20.80
2016-07-08T12:39:13.174Z,20.70
2016-07-08T12:40:13.165Z,20.70
2016-07-08T12:41:13.242Z,20.80
2016-07-08T12:42:10.806Z,20.80
2016-07-08T12:43:11.290Z,20.80
2016-07-08T12:44:12.171Z,20.80
2016-07-08T12:45:11.938Z,20.80
2016-07-08T12:46:11.407Z,20.80
2016-07-08T12:47:17.491Z,20.80
2016-07-08T12:48:12.134Z,20.80
2016-07-08T12:49:12.718Z,20.80
2016-07-08T12:50:12.678Z,20.80
2016-07-08T12:51:17.673Z,20.80
2016-07-08T12:52:11.613Z,20.80